Time;durP1;ratioP1;P1;durP2;ratioP2;P2;SDS_P1;SDS_P2;PMS_P1;PMS_P2;Temp;Humidity;BMP_temperature;BMP_pressure;BME280_temperature;BME280_humidity;BME280_pressure;Samples;Min_cycle;Max_cycle;Signal;HPM_P1;HPM_P2
2022/12/09 00:02:18;;;;;;;77.47;16.48;;;;;;;;;;5072666;28;20272;-75
2022/12/09 00:04:47;;;;;;;82.50;17.88;;;;;;;;;;5072597;28;20217;-75
2022/12/09 00:07:14;;;;;;;78.78;17.00;;;;;;;;;;5073170;28;20296;-75
2022/12/09 00:09:41;;;;;;;75.97;15.38;;;;;;;;;;5072519;28;20321;-76
2022/12/09 00:12:08;;;;;;;76.07;15.50;;;;;;;;;;5072964;28;20207;-75
2022/12/09 00:14:35;;;;;;;73.93;15.15;;;;;;;;;;5073592;28;20209;-76
2022/12/09 00:17:03;;;;;;;74.20;15.07;;;;;;;;;;5073816;28;20235;-75
2022/12/09 00:19:30;;;;;;;75.28;15.05;;;;;;;;;;5071838;28;20225;-75
2022/12/09 00:21:58;;;;;;;76.43;15.07;;;;;;;;;;5073117;28;20256;-75
2022/12/09 00:24:25;;;;;;;81.72;17.38;;;;;;;;;;5073274;28;20209;-76
2022/12/09 00:26:53;;;;;;;84.20;18.25;;;;;;;;;;5072371;28;20614;-76
2022/12/09 00:29:20;;;;;;;76.65;16.05;;;;;;;;;;5072114;28;20229;-76
2022/12/09 00:31:47;;;;;;;76.22;15.90;;;;;;;;;;5073220;28;20530;-75
2022/12/09 00:34:15;;;;;;;75.63;14.90;;;;;;;;;;5073070;28;20314;-76
2022/12/09 00:36:42;;;;;;;75.85;15.35;;;;;;;;;;5074039;28;20299;-78
2022/12/09 00:39:12;;;;;;;73.72;15.40;;;;;;;;;;5072302;28;20343;-76
2022/12/09 00:41:39;;;;;;;77.50;16.85;;;;;;;;;;5075070;28;20598;-77
2022/12/09 00:44:06;;;;;;;78.50;15.55;;;;;;;;;;5075037;28;20638;-77
2022/12/09 00:46:33;;;;;;;73.25;13.65;;;;;;;;;;5075285;28;20211;-77
2022/12/09 00:49:00;;;;;;;72.45;13.48;;;;;;;;;;5074274;28;20205;-77
2022/12/09 00:51:27;;;;;;;72.90;13.40;;;;;;;;;;5074554;28;20201;-76
2022/12/09 00:53:54;;;;;;;73.45;14.10;;;;;;;;;;5073561;28;20213;-77
2022/12/09 00:56:23;;;;;;;73.55;13.77;;;;;;;;;;5073931;28;20212;-76
2022/12/09 00:58:50;;;;;;;70.47;13.48;;;;;;;;;;5072685;28;20204;-77
2022/12/09 01:01:18;;;;;;;74.95;14.80;;;;;;;;;;5074608;28;20225;-76
2022/12/09 01:03:45;;;;;;;74.50;14.70;;;;;;;;;;5074113;28;20669;-77
2022/12/09 01:06:13;;;;;;;77.30;14.65;;;;;;;;;;5074420;28;20209;-76
2022/12/09 01:08:40;;;;;;;76.05;14.45;;;;;;;;;;5074118;28;20206;-77
2022/12/09 01:11:10;;;;;;;73.60;12.45;;;;;;;;;;5074024;28;20235;-77
2022/12/09 01:13:39;;;;;;;71.40;13.48;;;;;;;;;;5074157;28;20712;-76
2022/12/09 01:16:13;;;;;;;74.63;12.82;;;;;;;;;;5073276;28;20211;-77
2022/12/09 01:18:40;;;;;;;72.38;12.52;;;;;;;;;;5073409;28;20287;-77
2022/12/09 01:21:07;;;;;;;75.95;14.30;;;;;;;;;;5073439;28;20231;-77
2022/12/09 01:23:34;;;;;;;71.50;13.57;;;;;;;;;;5072655;28;20294;-77
2022/12/09 01:26:03;;;;;;;73.10;13.15;;;;;;;;;;5072681;28;20217;-75
2022/12/09 01:28:30;;;;;;;75.60;13.73;;;;;;;;;;5070775;28;20205;-75
2022/12/09 01:31:04;;;;;;;73.93;13.73;;;;;;;;;;5071478;28;20232;-76
2022/12/09 01:33:31;;;;;;;75.68;14.68;;;;;;;;;;5071793;28;20569;-76
2022/12/09 01:35:58;;;;;;;73.28;14.35;;;;;;;;;;5071855;28;20205;-75
2022/12/09 01:38:25;;;;;;;74.00;13.80;;;;;;;;;;5072062;28;20211;-75
2022/12/09 01:40:53;;;;;;;72.93;13.48;;;;;;;;;;5070431;28;20239;-75
2022/12/09 01:43:20;;;;;;;74.55;13.55;;;;;;;;;;5072188;28;20229;-75
2022/12/09 01:45:48;;;;;;;69.28;11.85;;;;;;;;;;5071406;28;20211;-75
2022/12/09 01:48:17;;;;;;;69.18;12.00;;;;;;;;;;5071278;28;20710;-75
2022/12/09 01:50:47;;;;;;;70.75;12.00;;;;;;;;;;5070632;28;20231;-75
2022/12/09 01:53:14;;;;;;;72.15;11.63;;;;;;;;;;5070813;28;20205;-75
2022/12/09 01:55:41;;;;;;;72.05;12.10;;;;;;;;;;5071736;28;20205;-76
2022/12/09 01:58:09;;;;;;;68.78;12.30;;;;;;;;;;5070303;28;20209;-75
2022/12/09 02:00:36;;;;;;;72.95;12.95;;;;;;;;;;5069866;28;20231;-75
2022/12/09 02:03:04;;;;;;;71.88;12.68;;;;;;;;;;5071408;28;20229;-75
2022/12/09 02:05:32;;;;;;;72.50;13.00;;;;;;;;;;5070084;28;20209;-75
2022/12/09 02:07:59;;;;;;;75.22;13.80;;;;;;;;;;5071423;28;20239;-75
2022/12/09 02:10:27;;;;;;;72.53;12.75;;;;;;;;;;5069556;28;20227;-76
2022/12/09 02:12:59;;;;;;;68.78;12.30;;;;;;;;;;5072143;28;20669;-76
2022/12/09 02:15:29;;;;;;;70.95;13.57;;;;;;;;;;5070333;28;20209;-76
2022/12/09 02:17:59;;;;;;;68.60;12.68;;;;;;;;;;5072040;28;20215;-76
2022/12/09 02:20:29;;;;;;;71.90;12.82;;;;;;;;;;5070157;28;20569;-76
2022/12/09 02:23:03;;;;;;;71.60;12.80;;;;;;;;;;5070768;28;20224;-76
2022/12/09 02:25:31;;;;;;;71.50;12.75;;;;;;;;;;5070630;28;20262;-76
2022/12/09 02:28:10;;;;;;;72.72;13.57;;;;;;;;;;5067522;28;20211;-76
2022/12/09 02:30:41;;;;;;;74.22;13.75;;;;;;;;;;5070996;28;20220;-77
2022/12/09 02:33:33;;;;;;;71.78;13.43;;;;;;;;;;5071960;28;20205;-76
2022/12/09 02:36:03;;;;;;;77.03;14.48;;;;;;;;;;5056220;28;20523;-76
2022/12/09 02:38:32;;;;;;;70.68;13.27;;;;;;;;;;5070622;28;20554;-76
2022/12/09 02:41:01;;;;;;;72.40;13.57;;;;;;;;;;5071382;28;20320;-76
2022/12/09 02:43:29;;;;;;;72.28;12.38;;;;;;;;;;5069943;28;20220;-77
2022/12/09 02:45:58;;;;;;;75.65;14.45;;;;;;;;;;5071189;28;20200;-75
2022/12/09 02:48:27;;;;;;;70.90;13.77;;;;;;;;;;5070646;28;20205;-75
2022/12/09 02:50:54;;;;;;;70.47;14.18;;;;;;;;;;5070711;28;20725;-74
2022/12/09 02:53:24;;;;;;;72.05;13.13;;;;;;;;;;5070912;28;20205;-74
2022/12/09 02:55:53;;;;;;;74.70;13.68;;;;;;;;;;5070638;28;20227;-75
2022/12/09 02:58:20;;;;;;;71.78;13.65;;;;;;;;;;5071271;28;20208;-75
2022/12/09 03:00:47;;;;;;;72.43;14.13;;;;;;;;;;5070272;28;20230;-74
2022/12/09 03:03:16;;;;;;;72.18;12.98;;;;;;;;;;5071041;28;20225;-75
2022/12/09 03:05:46;;;;;;;71.15;13.38;;;;;;;;;;5070139;28;20262;-75
2022/12/09 03:08:16;;;;;;;70.13;12.10;;;;;;;;;;5070888;28;20216;-75
2022/12/09 03:10:51;;;;;;;72.90;12.52;;;;;;;;;;5068961;28;20231;-75
2022/12/09 03:13:19;;;;;;;69.85;12.50;;;;;;;;;;5069795;28;20211;-75
2022/12/09 03:15:48;;;;;;;76.50;12.95;;;;;;;;;;5070519;28;20201;-75
2022/12/09 03:18:17;;;;;;;71.45;12.10;;;;;;;;;;5073807;28;20209;-75
2022/12/09 03:20:45;;;;;;;70.85;12.10;;;;;;;;;;5073671;28;20228;-75
2022/12/09 03:23:15;;;;;;;72.68;11.50;;;;;;;;;;5073735;28;20723;-75
2022/12/09 03:25:44;;;;;;;70.05;12.27;;;;;;;;;;5073818;28;20213;-75
2022/12/09 03:28:14;;;;;;;70.22;12.48;;;;;;;;;;5073344;28;20205;-76
2022/12/09 03:30:43;;;;;;;71.70;13.27;;;;;;;;;;5074860;28;20315;-77
2022/12/09 03:33:12;;;;;;;73.18;14.82;;;;;;;;;;5076657;28;20317;-77
2022/12/09 03:35:40;;;;;;;75.72;13.57;;;;;;;;;;5077475;28;20207;-78
2022/12/09 03:38:09;;;;;;;70.45;13.05;;;;;;;;;;5077170;28;20304;-77
2022/12/09 03:40:37;;;;;;;70.65;13.10;;;;;;;;;;5075337;28;20315;-77
2022/12/09 03:43:06;;;;;;;71.60;11.95;;;;;;;;;;5076635;28;20233;-77
2022/12/09 03:45:34;;;;;;;70.13;12.90;;;;;;;;;;5076583;28;20206;-78
2022/12/09 03:48:02;;;;;;;74.63;13.20;;;;;;;;;;5076713;28;20202;-75
2022/12/09 03:50:31;;;;;;;69.70;12.27;;;;;;;;;;5073578;28;20251;-76
2022/12/09 03:53:01;;;;;;;74.13;13.80;;;;;;;;;;5073766;28;20201;-76
2022/12/09 03:55:30;;;;;;;72.25;12.38;;;;;;;;;;5073587;28;20212;-76
2022/12/09 03:57:58;;;;;;;71.53;13.48;;;;;;;;;;5074239;28;20208;-76
2022/12/09 04:00:25;;;;;;;71.70;12.85;;;;;;;;;;5072980;28;20229;-76
2022/12/09 04:02:54;;;;;;;72.65;13.43;;;;;;;;;;5073340;28;20221;-76
2022/12/09 04:05:21;;;;;;;69.18;12.40;;;;;;;;;;5074039;28;20205;-76
2022/12/09 04:07:48;;;;;;;68.65;12.15;;;;;;;;;;5073524;28;20205;-76
2022/12/09 04:10:15;;;;;;;71.15;13.10;;;;;;;;;;5072465;28;20239;-76
2022/12/09 04:12:42;;;;;;;69.30;11.80;;;;;;;;;;5073816;28;20223;-76
2022/12/09 04:15:10;;;;;;;74.25;14.15;;;;;;;;;;5074513;28;20205;-74
2022/12/09 04:17:37;;;;;;;71.88;13.07;;;;;;;;;;5075921;28;20206;-76
2022/12/09 04:20:06;;;;;;;71.40;13.32;;;;;;;;;;5074363;28;20229;-77
2022/12/09 04:22:33;;;;;;;68.75;11.82;;;;;;;;;;5074937;28;20285;-77
2022/12/09 04:25:00;;;;;;;70.32;11.80;;;;;;;;;;5074265;28;20613;-77
2022/12/09 04:27:27;;;;;;;72.38;13.57;;;;;;;;;;5073808;28;20205;-77
2022/12/09 04:29:54;;;;;;;71.75;13.05;;;;;;;;;;5073856;28;20320;-77
2022/12/09 04:32:22;;;;;;;69.05;11.55;;;;;;;;;;5074296;28;20211;-77
2022/12/09 04:34:49;;;;;;;73.05;11.82;;;;;;;;;;5075451;28;20255;-75
2022/12/09 04:37:17;;;;;;;68.90;12.10;;;;;;;;;;5073593;28;20577;-77
2022/12/09 04:39:44;;;;;;;68.55;12.27;;;;;;;;;;5073509;28;20235;-76
2022/12/09 04:42:12;;;;;;;70.72;11.32;;;;;;;;;;5074083;28;20299;-76
2022/12/09 04:44:39;;;;;;;68.93;12.00;;;;;;;;;;5074914;28;20209;-77
2022/12/09 04:47:06;;;;;;;70.80;12.85;;;;;;;;;;5075066;28;20231;-76
2022/12/09 04:49:33;;;;;;;68.47;11.50;;;;;;;;;;5073010;28;20221;-77
2022/12/09 04:52:00;;;;;;;73.78;13.00;;;;;;;;;;5074262;28;20692;-76
2022/12/09 04:54:29;;;;;;;71.05;12.35;;;;;;;;;;5073890;28;20762;-76
2022/12/09 04:56:56;;;;;;;69.03;12.40;;;;;;;;;;5073682;28;20205;-76
2022/12/09 04:59:23;;;;;;;73.18;13.30;;;;;;;;;;5073753;28;20229;-77
2022/12/09 05:01:50;;;;;;;72.60;13.25;;;;;;;;;;5074658;28;20212;-76
2022/12/09 05:04:17;;;;;;;70.03;13.13;;;;;;;;;;5074547;28;20593;-77
2022/12/09 05:06:44;;;;;;;77.22;16.42;;;;;;;;;;5074693;28;20205;-76
2022/12/09 05:09:12;;;;;;;73.28;14.70;;;;;;;;;;5073596;28;20280;-76
2022/12/09 05:11:40;;;;;;;73.07;14.05;;;;;;;;;;5073605;28;20416;-76
2022/12/09 05:14:07;;;;;;;69.10;12.93;;;;;;;;;;5072387;28;20198;-76
2022/12/09 05:16:35;;;;;;;71.95;13.25;;;;;;;;;;5072356;28;20255;-76
2022/12/09 05:19:02;;;;;;;70.70;12.50;;;;;;;;;;5071997;28;20209;-76
2022/12/09 05:21:29;;;;;;;69.93;11.98;;;;;;;;;;5073350;28;20299;-76
2022/12/09 05:23:56;;;;;;;70.63;13.15;;;;;;;;;;5072222;28;20229;-75
2022/12/09 05:26:23;;;;;;;71.85;13.52;;;;;;;;;;5071345;28;20217;-75
2022/12/09 05:28:52;;;;;;;71.07;13.45;;;;;;;;;;5071897;28;20201;-75
2022/12/09 05:31:20;;;;;;;73.63;12.27;;;;;;;;;;5071557;28;20225;-75
2022/12/09 05:33:48;;;;;;;69.90;11.63;;;;;;;;;;5071627;28;20204;-75
2022/12/09 05:36:17;;;;;;;69.97;12.88;;;;;;;;;;5072077;28;20669;-75
2022/12/09 05:38:44;;;;;;;72.20;13.25;;;;;;;;;;5071354;28;20716;-75
2022/12/09 05:41:11;;;;;;;71.75;12.57;;;;;;;;;;5072133;28;20577;-76
2022/12/09 05:43:39;;;;;;;71.75;12.23;;;;;;;;;;5072598;28;20684;-76
2022/12/09 05:46:07;;;;;;;73.82;13.32;;;;;;;;;;5072582;28;20299;-76
2022/12/09 05:48:34;;;;;;;71.90;13.68;;;;;;;;;;5070891;28;20303;-76
2022/12/09 05:51:03;;;;;;;70.55;12.88;;;;;;;;;;5072145;28;20658;-76
2022/12/09 05:53:30;;;;;;;70.20;12.88;;;;;;;;;;5072470;28;20208;-76
2022/12/09 05:55:57;;;;;;;68.50;12.80;;;;;;;;;;5072685;28;20200;-77
2022/12/09 05:58:25;;;;;;;73.85;14.00;;;;;;;;;;5072575;28;20221;-76
2022/12/09 06:00:55;;;;;;;73.80;13.40;;;;;;;;;;5071569;28;20254;-77
2022/12/09 06:03:23;;;;;;;72.20;12.15;;;;;;;;;;5072742;28;20227;-76
2022/12/09 06:05:50;;;;;;;71.32;12.98;;;;;;;;;;5073273;28;20209;-77
2022/12/09 06:08:18;;;;;;;68.82;11.95;;;;;;;;;;5072532;28;20205;-77
2022/12/09 06:10:45;;;;;;;74.45;14.57;;;;;;;;;;5071960;28;20315;-76
2022/12/09 06:13:12;;;;;;;74.68;13.90;;;;;;;;;;5072804;28;20205;-77
2022/12/09 06:15:39;;;;;;;73.93;14.35;;;;;;;;;;5071470;28;20213;-76
2022/12/09 06:18:06;;;;;;;71.75;13.13;;;;;;;;;;5072221;28;20208;-76
2022/12/09 06:20:34;;;;;;;72.63;14.38;;;;;;;;;;5071228;28;20603;-76
2022/12/09 06:23:02;;;;;;;71.18;13.00;;;;;;;;;;5072490;28;20599;-76
2022/12/09 06:25:29;;;;;;;73.55;15.48;;;;;;;;;;5072544;28;20304;-76
2022/12/09 06:27:56;;;;;;;71.95;14.88;;;;;;;;;;5072037;28;20205;-76
2022/12/09 06:30:23;;;;;;;70.07;12.98;;;;;;;;;;5074721;28;20228;-77
2022/12/09 06:32:50;;;;;;;72.28;13.95;;;;;;;;;;5074885;28;20268;-77
2022/12/09 06:35:17;;;;;;;72.10;13.32;;;;;;;;;;5075406;28;20228;-77
2022/12/09 06:37:46;;;;;;;76.15;16.40;;;;;;;;;;5071070;28;20216;-76
2022/12/09 06:40:13;;;;;;;81.63;19.98;;;;;;;;;;5070282;28;20658;-75
2022/12/09 06:42:40;;;;;;;85.35;20.40;;;;;;;;;;5071623;28;20201;-76
2022/12/09 06:45:08;;;;;;;78.53;16.23;;;;;;;;;;5071793;28;20681;-76
2022/12/09 06:47:35;;;;;;;74.35;14.57;;;;;;;;;;5071788;28;20205;-75
2022/12/09 06:50:02;;;;;;;74.30;14.93;;;;;;;;;;5069787;28;20316;-75
2022/12/09 06:52:29;;;;;;;74.40;13.95;;;;;;;;;;5071042;28;20208;-75
2022/12/09 06:54:57;;;;;;;70.32;12.32;;;;;;;;;;5070497;28;20201;-75
2022/12/09 06:57:25;;;;;;;71.35;13.40;;;;;;;;;;5071637;28;20209;-74
2022/12/09 06:59:52;;;;;;;73.18;14.00;;;;;;;;;;5070328;28;20225;-75
2022/12/09 07:02:19;;;;;;;75.15;14.95;;;;;;;;;;5070614;28;20300;-74
2022/12/09 07:04:46;;;;;;;78.30;13.68;;;;;;;;;;5071389;28;20316;-75
2022/12/09 07:07:14;;;;;;;69.95;13.75;;;;;;;;;;5070446;28;20209;-75
2022/12/09 07:09:41;;;;;;;70.72;13.13;;;;;;;;;;5069119;28;20236;-74
2022/12/09 07:12:09;;;;;;;72.50;14.45;;;;;;;;;;5071144;28;20211;-75
2022/12/09 07:14:36;;;;;;;69.55;13.60;;;;;;;;;;5070234;28;20300;-75
2022/12/09 07:17:04;;;;;;;75.82;15.45;;;;;;;;;;5071119;28;20590;-75
2022/12/09 07:19:31;;;;;;;77.70;18.92;;;;;;;;;;5070445;28;20701;-75
2022/12/09 07:21:58;;;;;;;76.10;16.88;;;;;;;;;;5069676;28;20760;-75
2022/12/09 07:24:26;;;;;;;76.80;17.58;;;;;;;;;;5070443;28;20220;-73
2022/12/09 07:26:53;;;;;;;76.90;16.33;;;;;;;;;;5069287;28;20219;-75
2022/12/09 07:29:21;;;;;;;75.97;16.35;;;;;;;;;;5069726;28;20227;-75
2022/12/09 07:31:48;;;;;;;76.18;17.10;;;;;;;;;;5070415;28;20223;-75
2022/12/09 07:34:16;;;;;;;75.07;14.80;;;;;;;;;;5070142;28;20211;-77
2022/12/09 07:36:43;;;;;;;76.47;17.27;;;;;;;;;;5072550;28;20262;-77
2022/12/09 07:39:12;;;;;;;78.82;17.38;;;;;;;;;;5072959;28;20231;-77
2022/12/09 07:41:39;;;;;;;74.68;15.73;;;;;;;;;;5073913;28;20292;-76
2022/12/09 07:44:06;;;;;;;75.70;16.92;;;;;;;;;;5066275;28;20225;-77
2022/12/09 07:46:35;;;;;;;77.18;16.15;;;;;;;;;;5069350;28;20322;-76
2022/12/09 07:49:02;;;;;;;73.40;15.60;;;;;;;;;;5070142;28;20209;-77
2022/12/09 07:51:30;;;;;;;75.78;16.77;;;;;;;;;;5075091;28;20205;-77
2022/12/09 07:53:57;;;;;;;79.47;16.25;;;;;;;;;;5073359;28;20216;-79
2022/12/09 07:56:26;;;;;;;75.38;15.77;;;;;;;;;;5074871;28;20304;-78
2022/12/09 07:58:53;;;;;;;76.50;16.25;;;;;;;;;;5074795;28;20240;-80
2022/12/09 08:01:22;;;;;;;74.13;14.90;;;;;;;;;;5074763;28;20209;-79
2022/12/09 08:03:50;;;;;;;74.03;14.70;;;;;;;;;;5076892;28;20217;-80
2022/12/09 08:06:18;;;;;;;75.45;17.20;;;;;;;;;;5079022;28;20410;-80
2022/12/09 08:08:45;;;;;;;73.53;15.07;;;;;;;;;;5077689;28;20304;-80
2022/12/09 08:11:13;;;;;;;74.72;15.40;;;;;;;;;;5077745;28;20225;-78
2022/12/09 08:13:41;;;;;;;77.75;16.33;;;;;;;;;;5076281;28;20679;-77
2022/12/09 08:16:09;;;;;;;71.80;14.65;;;;;;;;;;5077492;28;20212;-77
2022/12/09 08:18:36;;;;;;;72.10;14.73;;;;;;;;;;5077763;28;20302;-78
2022/12/09 08:21:06;;;;;;;75.95;15.80;;;;;;;;;;5078547;28;20727;-78
2022/12/09 08:23:33;;;;;;;73.93;14.95;;;;;;;;;;5078869;28;20221;-78
2022/12/09 08:26:00;;;;;;;75.80;16.58;;;;;;;;;;5078724;28;20224;-78
2022/12/09 08:28:28;;;;;;;76.30;17.20;;;;;;;;;;5078688;28;20205;-75
2022/12/09 08:30:55;;;;;;;73.35;14.73;;;;;;;;;;5078152;28;20320;-78
2022/12/09 08:33:22;;;;;;;73.25;14.90;;;;;;;;;;5078776;28;20300;-78
2022/12/09 08:35:49;;;;;;;72.68;14.88;;;;;;;;;;5078552;28;20288;-78
2022/12/09 08:38:17;;;;;;;74.50;14.80;;;;;;;;;;5078308;28;20299;-78
2022/12/09 08:40:44;;;;;;;73.80;15.50;;;;;;;;;;5077785;28;20229;-78
2022/12/09 08:43:12;;;;;;;78.30;15.23;;;;;;;;;;5078329;28;20292;-78
2022/12/09 08:45:40;;;;;;;74.38;15.52;;;;;;;;;;5069991;28;20197;-79
2022/12/09 08:48:08;;;;;;;75.18;14.48;;;;;;;;;;5068533;28;20459;-78
2022/12/09 08:50:35;;;;;;;95.35;31.33;;;;;;;;;;5066383;28;20234;-78
2022/12/09 08:53:02;;;;;;;74.57;14.57;;;;;;;;;;5066790;28;20198;-78
2022/12/09 08:55:31;;;;;;;73.22;14.05;;;;;;;;;;5075953;28;20264;-78
2022/12/09 08:57:58;;;;;;;73.38;14.13;;;;;;;;;;5078677;28;20205;-77
2022/12/09 09:00:25;;;;;;;72.60;14.50;;;;;;;;;;5078429;28;20288;-79
2022/12/09 09:02:52;;;;;;;72.78;14.80;;;;;;;;;;5078786;28;20300;-78
2022/12/09 09:05:19;;;;;;;75.57;13.95;;;;;;;;;;5077872;28;20225;-78
2022/12/09 09:07:47;;;;;;;71.65;14.13;;;;;;;;;;5078387;28;20301;-78
2022/12/09 09:10:14;;;;;;;71.97;13.57;;;;;;;;;;5077810;28;20225;-78
2022/12/09 09:12:42;;;;;;;69.75;13.93;;;;;;;;;;5078172;28;20209;-78
2022/12/09 09:15:10;;;;;;;73.07;14.48;;;;;;;;;;5076962;28;20234;-79
2022/12/09 09:17:37;;;;;;;75.07;15.82;;;;;;;;;;5077802;28;20354;-78
2022/12/09 09:20:05;;;;;;;72.55;14.35;;;;;;;;;;5076858;28;20320;-78
2022/12/09 09:22:32;;;;;;;71.82;14.50;;;;;;;;;;5077440;28;20291;-78
2022/12/09 09:24:59;;;;;;;76.25;15.77;;;;;;;;;;5076966;28;20308;-78
2022/12/09 09:27:26;;;;;;;72.28;13.75;;;;;;;;;;5077678;28;20207;-78
2022/12/09 09:29:54;;;;;;;74.97;15.45;;;;;;;;;;5076294;28;20236;-78
2022/12/09 09:32:22;;;;;;;72.28;15.05;;;;;;;;;;5076961;28;20203;-78
2022/12/09 09:34:49;;;;;;;72.82;14.63;;;;;;;;;;5077350;28;20308;-77
2022/12/09 09:37:16;;;;;;;73.22;15.55;;;;;;;;;;5076913;28;20700;-79
2022/12/09 09:39:43;;;;;;;73.93;15.60;;;;;;;;;;5076114;28;20240;-78
2022/12/09 09:42:24;;;;;;;70.72;13.90;;;;;;;;;;5077177;28;20205;-80
2022/12/09 09:44:52;;;;;;;77.47;15.48;;;;;;;;;;5076607;28;20372;-78
2022/12/09 09:47:26;;;;;;;79.03;18.52;;;;;;;;;;5077159;28;20209;-80
2022/12/09 09:49:54;;;;;;;76.72;16.58;;;;;;;;;;5075107;28;20309;-80
2022/12/09 09:52:23;;;;;;;70.07;14.40;;;;;;;;;;5076846;28;20241;-79
2022/12/09 09:54:51;;;;;;;75.10;16.65;;;;;;;;;;5077016;28;20286;-79
2022/12/09 09:57:23;;;;;;;71.88;14.70;;;;;;;;;;5077571;28;20299;-79
2022/12/09 09:59:55;;;;;;;76.03;17.55;;;;;;;;;;5076490;28;20729;-79
2022/12/09 10:02:30;;;;;;;73.90;14.90;;;;;;;;;;5078027;28;20284;-79
2022/12/09 10:05:03;;;;;;;73.13;14.98;;;;;;;;;;5077608;28;20230;-79
2022/12/09 10:07:34;;;;;;;76.18;16.55;;;;;;;;;;5077884;28;20297;-79
2022/12/09 10:10:06;;;;;;;78.43;17.80;;;;;;;;;;5078241;28;20755;-80
2022/12/09 10:12:39;;;;;;;77.13;17.88;;;;;;;;;;5076029;28;20294;-77
2022/12/09 10:15:10;;;;;;;78.47;17.98;;;;;;;;;;5075929;28;20289;-77
2022/12/09 10:17:42;;;;;;;74.50;17.30;;;;;;;;;;5073982;28;20210;-77
2022/12/09 10:20:12;;;;;;;74.18;15.68;;;;;;;;;;5072558;28;20232;-77
2022/12/09 10:22:42;;;;;;;71.65;15.55;;;;;;;;;;5073992;28;20211;-77
2022/12/09 10:25:16;;;;;;;77.72;16.75;;;;;;;;;;5072860;28;20219;-77
2022/12/09 10:27:46;;;;;;;76.60;16.45;;;;;;;;;;5073670;28;20251;-77
2022/12/09 10:30:15;;;;;;;75.60;16.38;;;;;;;;;;5073119;28;20228;-77
2022/12/09 10:32:44;;;;;;;80.13;15.77;;;;;;;;;;5073945;28;20211;-77
2022/12/09 10:35:13;;;;;;;76.18;17.05;;;;;;;;;;5074486;28;20207;-78
2022/12/09 10:37:40;;;;;;;75.45;16.60;;;;;;;;;;5073890;28;20607;-77
2022/12/09 10:40:29;;;;;;;75.78;16.13;;;;;;;;;;5072730;28;20228;-77
2022/12/09 10:45:46;;;;;;;76.55;16.80;;;;;;;;;;5074861;28;20744;-78
2022/12/09 10:48:22;;;;;;;77.40;17.20;;;;;;;;;;5075188;28;20289;-77
2022/12/09 10:50:55;;;;;;;75.63;15.60;;;;;;;;;;5074141;28;20253;-76
2022/12/09 10:53:22;;;;;;;74.20;16.10;;;;;;;;;;5075340;28;20211;-78
2022/12/09 10:55:50;;;;;;;78.22;17.02;;;;;;;;;;5075008;28;20204;-77
2022/12/09 10:58:19;;;;;;;78.95;16.92;;;;;;;;;;5074833;28;20245;-77
2022/12/09 11:00:58;;;;;;;74.25;15.73;;;;;;;;;;5073969;28;20242;-78
2022/12/09 11:03:29;;;;;;;76.15;18.02;;;;;;;;;;5074654;28;20802;-78
2022/12/09 11:05:57;;;;;;;79.30;17.70;;;;;;;;;;5074243;28;20230;-77
2022/12/09 11:08:25;;;;;;;77.57;18.63;;;;;;;;;;5074027;28;20213;-78
2022/12/09 11:10:52;;;;;;;77.63;18.00;;;;;;;;;;5073406;28;20312;-77
2022/12/09 11:13:20;;;;;;;78.15;17.92;;;;;;;;;;5074924;28;20569;-78
2022/12/09 11:15:52;;;;;;;82.43;18.70;;;;;;;;;;5074981;28;20291;-78
2022/12/09 11:18:21;;;;;;;74.82;16.83;;;;;;;;;;5072683;28;20207;-75
2022/12/09 11:20:56;;;;;;;79.50;18.52;;;;;;;;;;5071499;28;20224;-76
2022/12/09 11:23:23;;;;;;;79.85;17.98;;;;;;;;;;5072073;28;20794;-76
2022/12/09 11:25:55;;;;;;;80.10;19.10;;;;;;;;;;5074174;28;20227;-77
2022/12/09 11:28:26;;;;;;;76.25;16.85;;;;;;;;;;5075388;28;20243;-76
2022/12/09 11:30:55;;;;;;;78.85;19.77;;;;;;;;;;5074361;28;20234;-78
2022/12/09 11:33:25;;;;;;;75.78;16.27;;;;;;;;;;5075951;28;20290;-78
2022/12/09 11:35:55;;;;;;;74.55;17.15;;;;;;;;;;5074855;28;20577;-78
2022/12/09 11:38:27;;;;;;;76.97;17.40;;;;;;;;;;5078220;28;20666;-78
2022/12/09 11:41:03;;;;;;;81.45;18.50;;;;;;;;;;5078239;28;20230;-78
2022/12/09 11:43:35;;;;;;;77.68;18.55;;;;;;;;;;5079441;28;20213;-78
2022/12/09 11:46:08;;;;;;;80.53;18.05;;;;;;;;;;5078953;28;20232;-78
2022/12/09 11:48:36;;;;;;;79.78;17.25;;;;;;;;;;5078870;28;20205;-78
2022/12/09 11:51:03;;;;;;;75.78;16.80;;;;;;;;;;5083505;28;20786;-78
2022/12/09 11:53:32;;;;;;;76.30;15.95;;;;;;;;;;5083411;28;20272;-78
2022/12/09 11:56:02;;;;;;;78.60;17.52;;;;;;;;;;5082031;28;20200;-78
2022/12/09 11:58:33;;;;;;;77.55;17.40;;;;;;;;;;5082974;28;20219;-76
2022/12/09 12:01:03;;;;;;;79.38;17.88;;;;;;;;;;5080897;28;20308;-77
2022/12/09 12:03:35;;;;;;;77.90;17.75;;;;;;;;;;5078755;28;20208;-79
2022/12/09 12:06:04;;;;;;;78.25;18.02;;;;;;;;;;5078608;28;20242;-77
2022/12/09 12:08:36;;;;;;;78.85;19.20;;;;;;;;;;5077327;28;20214;-75
2022/12/09 12:11:05;;;;;;;82.05;18.30;;;;;;;;;;5078062;28;20228;-78
2022/12/09 12:13:37;;;;;;;83.78;21.30;;;;;;;;;;5077592;28;20214;-78
2022/12/09 12:16:06;;;;;;;77.38;18.70;;;;;;;;;;5077233;28;20204;-77
2022/12/09 12:18:34;;;;;;;78.70;18.40;;;;;;;;;;5076277;28;20207;-77
2022/12/09 12:21:17;;;;;;;78.63;18.05;;;;;;;;;;5076961;28;20238;-77
2022/12/09 12:23:50;;;;;;;79.65;19.13;;;;;;;;;;5076445;28;20211;-77
2022/12/09 12:26:20;;;;;;;83.70;18.83;;;;;;;;;;5076317;28;20228;-76
2022/12/09 12:28:55;;;;;;;77.50;18.33;;;;;;;;;;5076047;28;20213;-78
2022/12/09 12:31:29;;;;;;;74.45;17.23;;;;;;;;;;5076219;28;20211;-78
2022/12/09 12:34:00;;;;;;;82.40;19.65;;;;;;;;;;5076727;28;20303;-78
2022/12/09 12:36:32;;;;;;;78.07;19.15;;;;;;;;;;5076219;28;20207;-76
2022/12/09 12:39:06;;;;;;;77.28;17.70;;;;;;;;;;5074678;28;20215;-77
2022/12/09 12:41:36;;;;;;;80.18;19.77;;;;;;;;;;5075985;28;20211;-77
2022/12/09 12:47:02;;;;;;;81.95;18.48;;;;;;;;;;5073436;28;20207;-76
2022/12/09 12:49:35;;;;;;;78.63;17.85;;;;;;;;;;5071505;28;20235;-75
2022/12/09 12:52:08;;;;;;;80.50;20.83;;;;;;;;;;5073378;28;20713;-76
2022/12/09 12:54:41;;;;;;;75.60;16.80;;;;;;;;;;5074055;28;20205;-76
2022/12/09 12:57:13;;;;;;;83.45;19.38;;;;;;;;;;5073332;28;20212;-78
2022/12/09 12:59:44;;;;;;;78.88;19.38;;;;;;;;;;5077703;28;20614;-78
2022/12/09 13:02:19;;;;;;;84.35;21.65;;;;;;;;;;5079122;28;20209;-78
2022/12/09 13:04:48;;;;;;;81.72;19.35;;;;;;;;;;5078895;28;20326;-77
2022/12/09 13:07:24;;;;;;;78.72;18.20;;;;;;;;;;5078107;28;20207;-78
2022/12/09 13:09:54;;;;;;;88.70;17.90;;;;;;;;;;5077552;28;20228;-78
2022/12/09 13:12:52;;;;;;;77.53;17.70;;;;;;;;;;5077675;28;20640;-76
2022/12/09 13:15:12;;;;;;;80.65;18.65;;;;;;;;;;5073813;28;20218;-76
2022/12/09 13:17:40;;;;;;;83.18;20.35;;;;;;;;;;5074122;28;20218;-77
2022/12/09 13:20:12;;;;;;;79.28;19.27;;;;;;;;;;5073041;28;20231;-76
2022/12/09 13:22:45;;;;;;;82.70;19.55;;;;;;;;;;5073714;28;20243;-77
2022/12/09 13:25:18;;;;;;;83.25;18.27;;;;;;;;;;5074144;28;20255;-77
2022/12/09 13:27:49;;;;;;;79.18;17.88;;;;;;;;;;5074290;28;20685;-76
2022/12/09 13:30:18;;;;;;;77.60;17.67;;;;;;;;;;5073219;28;20235;-76
2022/12/09 13:32:56;;;;;;;79.35;17.58;;;;;;;;;;5074037;28;20208;-76
2022/12/09 13:35:27;;;;;;;79.30;18.60;;;;;;;;;;5073629;28;20296;-77
2022/12/09 13:37:59;;;;;;;78.90;20.40;;;;;;;;;;5074989;28;20225;-77
2022/12/09 13:40:34;;;;;;;83.00;19.45;;;;;;;;;;5074216;28;20228;-77
2022/12/09 13:43:06;;;;;;;89.00;21.42;;;;;;;;;;5075364;28;20204;-77
2022/12/09 13:45:34;;;;;;;86.03;22.00;;;;;;;;;;5074487;28;20230;-77
2022/12/09 13:48:04;;;;;;;80.75;20.20;;;;;;;;;;5074609;28;20315;-75
2022/12/09 13:50:35;;;;;;;82.88;20.33;;;;;;;;;;5073660;28;20319;-76
2022/12/09 13:53:03;;;;;;;82.28;20.42;;;;;;;;;;5074104;28;20227;-77
2022/12/09 13:55:39;;;;;;;81.93;19.65;;;;;;;;;;5075214;28;20226;-78
2022/12/09 13:58:25;;;;;;;85.22;21.02;;;;;;;;;;5076033;28;20226;-79
2022/12/09 14:01:02;;;;;;;81.32;20.65;;;;;;;;;;5076520;28;20289;-78
2022/12/09 14:03:31;;;;;;;84.32;20.95;;;;;;;;;;5077126;28;20209;-78
2022/12/09 14:05:59;;;;;;;83.03;20.73;;;;;;;;;;5077319;28;20235;-77
2022/12/09 14:08:29;;;;;;;86.63;20.95;;;;;;;;;;5077127;28;20423;-79
2022/12/09 14:10:57;;;;;;;81.85;19.50;;;;;;;;;;5077440;28;20292;-77
2022/12/09 14:13:31;;;;;;;82.43;19.65;;;;;;;;;;5078446;28;20208;-78
2022/12/09 14:16:33;;;;;;;83.40;21.15;;;;;;;;;;5078047;28;20263;-79
2022/12/09 14:19:33;;;;;;;83.97;20.90;;;;;;;;;;5076468;28;20189;-78
2022/12/09 14:22:30;;;;;;;84.40;21.02;;;;;;;;;;5076690;28;20209;-78
2022/12/09 14:24:59;;;;;;;92.38;23.55;;;;;;;;;;5014533;28;20289;-78
2022/12/09 14:27:27;;;;;;;87.68;24.27;;;;;;;;;;5062821;28;20218;-78
2022/12/09 14:29:55;;;;;;;89.00;24.10;;;;;;;;;;5075892;28;20232;-78
2022/12/09 14:32:27;;;;;;;89.00;24.52;;;;;;;;;;5076181;28;20223;-77
2022/12/09 14:35:15;;;;;;;94.03;25.52;;;;;;;;;;5077797;28;20209;-78